N1930G 0MA6-

Flight info

Callsign N1930G
Flight time N/A
Altitude VFR/015
Route
Aircraft R66/L-DOV/C

Departure

Time 2026-04-13 22:38
Airport Wbz Heliport (0MA6)

Arrival

Time N/A
Airport -
Time Latitude Longitude Altitude Speed Heading
2026-04-13 22:36 42.36533 -71.13268 10 ft 0 kts
2026-04-13 22:37 42.36557 -71.13260 100 ft 16 kts 352°
2026-04-13 22:37 42.36645 -71.12949 354 ft 72 kts 96°
2026-04-13 22:37 42.36620 -71.12085 367 ft 101 kts 117°
2026-04-13 22:38 42.36111 -71.11737 469 ft 84 kts 192°
2026-04-13 22:38 42.35519 -71.11822 565 ft 90 kts 171°
2026-04-13 22:38 42.35161 -71.11076 678 ft 104 kts 105°
2026-04-13 22:38 42.35194 -71.10010 691 ft 116 kts 88°
2026-04-13 22:39 42.35415 -71.08988 829 ft 119 kts 75°
2026-04-13 22:39 42.35817 -71.07952 856 ft 131 kts 43°
2026-04-13 22:39 42.36598 -71.07237 731 ft 145 kts 31°
2026-04-13 22:39 42.36966 -71.06070 732 ft 134 kts 86°
2026-04-13 22:40 42.37249 -71.04969 867 ft 129 kts 42°
2026-04-13 22:40 42.38088 -71.04535 822 ft 131 kts 357°
2026-04-13 22:40 42.38985 -71.04232 803 ft 136 kts 25°
2026-04-13 22:40 42.39772 -71.03724 745 ft 124 kts 337°
2026-04-13 22:41 42.40374 -71.03204 562 ft 132 kts 76°
2026-04-13 22:41 42.41015 -71.02755 622 ft 112 kts 318°
2026-04-13 22:41 42.41694 -71.03107 825 ft 115 kts 353°
2026-04-13 22:41 42.42482 -71.02493 641 ft 140 kts 40°
2026-04-13 22:42 42.43234 -71.01819 597 ft 121 kts 338°